createdAt,value
2022-08-26T00:01:44.187Z,96699.94
2022-08-26T00:04:12.428Z,96699.97
2022-08-26T00:06:42.287Z,96694.97
2022-08-26T00:09:09.883Z,96695.69
2022-08-26T00:11:37.007Z,96691.66
2022-08-26T00:14:03.792Z,96696.44
2022-08-26T00:16:31.938Z,96694.19
2022-08-26T00:18:58.964Z,96702.56
2022-08-26T00:21:25.575Z,96705.84
2022-08-26T00:23:52.211Z,96696.13
2022-08-26T00:26:19.145Z,96702.81
2022-08-26T00:28:47.578Z,96695.75
2022-08-26T00:31:14.618Z,96697.72
2022-08-26T00:33:41.955Z,96701.88
2022-08-26T00:36:09.537Z,96700.50
2022-08-26T00:38:46.821Z,96697.81
2022-08-26T00:41:13.508Z,96704.53
2022-08-26T00:43:47.709Z,96698.16
2022-08-26T00:46:21.762Z,96699.09
2022-08-26T00:48:52.266Z,96697.84
2022-08-26T00:51:24.766Z,96698.50
2022-08-26T00:54:05.590Z,96693.69
2022-08-26T00:56:41.589Z,96696.25
2022-08-26T00:59:11.920Z,96697.28
2022-08-26T01:01:41.308Z,96701.22
2022-08-26T01:04:09.811Z,96709.19
2022-08-26T01:06:36.703Z,96702.59
2022-08-26T01:09:04.464Z,96697.25
2022-08-26T01:11:32.550Z,96700.06
2022-08-26T01:14:02.739Z,96693.91
2022-08-26T01:16:30.632Z,96690.94
2022-08-26T01:19:06.498Z,96680.84
2022-08-26T01:21:41.237Z,96686.28
2022-08-26T01:24:10.372Z,96685.50
2022-08-26T01:26:41.375Z,96688.50
2022-08-26T01:29:13.186Z,96692.31
2022-08-26T01:31:45.973Z,96689.06
2022-08-26T01:34:30.419Z,96692.94
2022-08-26T01:37:13.668Z,96686.28
2022-08-26T01:39:44.876Z,96687.44
2022-08-26T01:42:14.653Z,96691.84
2022-08-26T01:44:56.472Z,96688.50
2022-08-26T01:47:26.546Z,96687.97
2022-08-26T01:49:55.323Z,96692.16
2022-08-26T01:52:28.241Z,96693.28
2022-08-26T01:54:56.869Z,96693.69
2022-08-26T01:57:24.661Z,96697.88
2022-08-26T01:59:55.197Z,96693.94
2022-08-26T02:02:23.393Z,96691.59
2022-08-26T02:04:57.354Z,96693.41
2022-08-26T02:07:26.668Z,96689.03
2022-08-26T02:09:54.057Z,96693.81
2022-08-26T02:12:21.111Z,96698.66
2022-08-26T02:14:53.736Z,96703.19
2022-08-26T02:17:23.705Z,96695.59
2022-08-26T02:19:50.780Z,96689.25
2022-08-26T02:22:22.785Z,96689.56
2022-08-26T02:25:06.973Z,96681.44
2022-08-26T02:27:35.765Z,96671.13
2022-08-26T02:30:32.610Z,96672.78
2022-08-26T02:33:03.747Z,96671.97
2022-08-26T02:35:32.562Z,96670.81
2022-08-26T02:38:00.360Z,96668.63
2022-08-26T02:40:31.649Z,96682.50
2022-08-26T02:42:58.486Z,96667.00
2022-08-26T02:45:28.951Z,96673.16
2022-08-26T02:47:58.545Z,96674.09
2022-08-26T02:50:26.954Z,96677.63
2022-08-26T02:52:53.752Z,96674.38
2022-08-26T02:55:20.583Z,96675.69
2022-08-26T02:57:47.212Z,96672.56
2022-08-26T03:00:15.460Z,96663.63
2022-08-26T03:02:42.268Z,96671.00
2022-08-26T03:05:09.770Z,96669.41
2022-08-26T03:07:36.382Z,96672.06
2022-08-26T03:10:08.311Z,96669.84
2022-08-26T03:12:35.758Z,96674.59
2022-08-26T03:15:02.518Z,96675.75
2022-08-26T03:17:46.371Z,96679.09
2022-08-26T03:20:13.666Z,96678.28
2022-08-26T03:22:42.850Z,96680.22
2022-08-26T03:25:12.900Z,96667.09
2022-08-26T03:27:41.585Z,96674.94
2022-08-26T03:30:30.736Z,96671.53
2022-08-26T03:32:57.714Z,96668.56
2022-08-26T03:35:25.896Z,96674.88
2022-08-26T03:37:53.590Z,96677.31
2022-08-26T03:40:21.636Z,96670.69
2022-08-26T03:42:49.227Z,96667.81
2022-08-26T03:45:17.218Z,96684.69
2022-08-26T03:47:48.009Z,96668.28
2022-08-26T03:50:22.586Z,96674.59
2022-08-26T03:52:51.917Z,96672.44
2022-08-26T03:55:19.961Z,96671.63
2022-08-26T03:57:50.826Z,96668.88
2022-08-26T04:00:18.673Z,96660.50
2022-08-26T04:02:48.893Z,96654.84
2022-08-26T04:05:17.619Z,96666.50
2022-08-26T04:07:44.735Z,96661.53
2022-08-26T04:10:13.606Z,96663.03
2022-08-26T04:12:42.434Z,96665.69
2022-08-26T04:15:13.698Z,96661.84
2022-08-26T04:17:40.982Z,96666.72
2022-08-26T04:20:09.025Z,96663.50
2022-08-26T04:22:35.767Z,96659.66
2022-08-26T04:25:02.707Z,96656.03
2022-08-26T04:27:33.778Z,96661.13
2022-08-26T04:30:01.050Z,96662.06
2022-08-26T04:32:27.716Z,96656.53
2022-08-26T04:34:54.301Z,96662.56
2022-08-26T04:37:25.112Z,96661.09
2022-08-26T04:39:53.079Z,96657.44
2022-08-26T04:42:22.797Z,96660.97
2022-08-26T04:44:52.802Z,96663.28
2022-08-26T04:47:19.389Z,96661.84
2022-08-26T04:49:45.980Z,96659.25
2022-08-26T04:52:12.734Z,96657.84
2022-08-26T04:54:39.410Z,96662.03
2022-08-26T04:57:08.687Z,96669.63
2022-08-26T04:59:39.166Z,96661.41
2022-08-26T05:02:07.029Z,96674.06
2022-08-26T05:04:34.167Z,96666.09
2022-08-26T05:07:02.770Z,96665.53
2022-08-26T05:09:29.802Z,96667.44
2022-08-26T05:11:57.262Z,96664.19
2022-08-26T05:14:23.924Z,96672.84
2022-08-26T05:16:51.441Z,96669.31
2022-08-26T05:19:19.259Z,96676.22
2022-08-26T05:21:47.174Z,96671.63
2022-08-26T05:24:14.700Z,96664.34
2022-08-26T05:26:41.643Z,96672.00
2022-08-26T05:29:11.397Z,96669.81
2022-08-26T05:31:38.102Z,96670.03
2022-08-26T05:34:05.929Z,96668.69
2022-08-26T05:36:35.925Z,96672.22
2022-08-26T05:39:05.932Z,96676.28
2022-08-26T05:41:36.416Z,96681.22
2022-08-26T05:44:06.266Z,96667.50
2022-08-26T05:46:34.565Z,96668.69
2022-08-26T05:49:01.486Z,96679.00
2022-08-26T05:51:30.407Z,96671.00
2022-08-26T05:53:58.415Z,96662.81
2022-08-26T05:56:26.230Z,96668.94
2022-08-26T05:58:53.892Z,96670.13
2022-08-26T06:01:26.439Z,96659.16
2022-08-26T06:03:56.865Z,96660.50
2022-08-26T06:06:32.321Z,96659.19
2022-08-26T06:09:01.287Z,96658.06
2022-08-26T06:11:32.168Z,96660.69
2022-08-26T06:14:03.944Z,96656.41
2022-08-26T06:16:32.715Z,96655.69
2022-08-26T06:19:02.876Z,96658.59
2022-08-26T06:21:32.152Z,96658.94
2022-08-26T06:24:26.874Z,96661.13
2022-08-26T06:26:56.914Z,96663.31
2022-08-26T06:29:27.570Z,96667.34
2022-08-26T06:31:56.204Z,96668.00
2022-08-26T06:34:29.869Z,96671.16
2022-08-26T06:36:59.799Z,96665.69
2022-08-26T06:39:28.284Z,96660.56
2022-08-26T06:41:57.800Z,96662.75
2022-08-26T06:44:24.604Z,96670.56
2022-08-26T06:46:51.382Z,96669.00
2022-08-26T06:49:26.870Z,96668.81
2022-08-26T06:51:56.521Z,96677.97
2022-08-26T06:54:23.080Z,96675.78
2022-08-26T06:56:49.758Z,96680.59
2022-08-26T06:59:16.378Z,96679.75
2022-08-26T07:01:46.836Z,96671.47
2022-08-26T07:04:22.145Z,96678.72
2022-08-26T07:06:52.656Z,96674.47
2022-08-26T07:09:22.519Z,96673.63
2022-08-26T07:11:49.589Z,96674.88
2022-08-26T07:14:19.349Z,96676.13
2022-08-26T07:16:49.054Z,96674.34
2022-08-26T07:19:27.618Z,96671.72
2022-08-26T07:22:03.421Z,96674.50
2022-08-26T07:24:35.465Z,96672.59
2022-08-26T07:27:06.776Z,96678.00
2022-08-26T07:29:36.280Z,96669.47
2022-08-26T07:32:04.206Z,96671.22
2022-08-26T07:34:33.142Z,96673.00
2022-08-26T07:37:00.452Z,96666.59
2022-08-26T07:39:28.320Z,96662.59
2022-08-26T07:41:59.590Z,96669.34
2022-08-26T07:44:27.300Z,96666.16
2022-08-26T07:46:54.268Z,96659.34
2022-08-26T07:49:23.624Z,96660.41
2022-08-26T07:51:51.398Z,96662.50
2022-08-26T07:54:19.514Z,96661.78
2022-08-26T07:56:48.659Z,96669.16
2022-08-26T07:59:17.646Z,96657.16
2022-08-26T08:01:45.910Z,96658.91
2022-08-26T08:04:14.788Z,96650.97
2022-08-26T08:06:41.889Z,96658.25
2022-08-26T08:09:11.843Z,96659.63
2022-08-26T08:11:38.455Z,96657.56
2022-08-26T08:14:08.324Z,96654.63
2022-08-26T08:16:37.253Z,96658.66
2022-08-26T08:19:05.777Z,96647.28
2022-08-26T08:21:32.400Z,96648.88
2022-08-26T08:23:59.006Z,96648.06
2022-08-26T08:26:26.613Z,96645.22
2022-08-26T08:28:57.806Z,96643.75
2022-08-26T08:31:56.176Z,96638.84
2022-08-26T08:34:17.114Z,96632.13
2022-08-26T08:36:46.369Z,96634.47
2022-08-26T08:39:13.340Z,96621.16
2022-08-26T08:42:09.104Z,96625.16
2022-08-26T08:44:41.916Z,96622.56
2022-08-26T08:47:20.739Z,96612.63
2022-08-26T08:49:47.951Z,96614.41
2022-08-26T08:52:35.177Z,96613.22
2022-08-26T08:55:06.209Z,96610.16
2022-08-26T08:58:02.594Z,96610.63
2022-08-26T09:00:39.809Z,96601.84
2022-08-26T09:03:35.522Z,96601.66
2022-08-26T09:06:05.508Z,96597.50
2022-08-26T09:08:35.847Z,96602.09
2022-08-26T09:11:03.783Z,96594.09
2022-08-26T09:13:31.737Z,96588.81
2022-08-26T09:16:10.117Z,96596.31
2022-08-26T09:19:04.951Z,96590.09
2022-08-26T09:21:32.298Z,96594.09
2022-08-26T09:24:00.301Z,96590.44
2022-08-26T09:26:38.862Z,96597.13
2022-08-26T09:29:24.699Z,96588.28
2022-08-26T09:31:53.010Z,96581.97
2022-08-26T09:34:27.131Z,96586.66
2022-08-26T09:37:00.379Z,96581.47
2022-08-26T09:39:37.851Z,96580.97
2022-08-26T09:42:11.333Z,96578.25
2022-08-26T09:45:01.899Z,96568.16
2022-08-26T09:47:41.525Z,96568.19
2022-08-26T09:50:28.919Z,96564.56
2022-08-26T09:53:28.739Z,96562.63
2022-08-26T09:56:14.879Z,96556.19
2022-08-26T09:58:45.169Z,96543.91
2022-08-26T10:01:23.834Z,96546.25
2022-08-26T10:03:51.493Z,96547.41
2022-08-26T10:06:18.161Z,96542.16
2022-08-26T10:08:52.222Z,96530.75
2022-08-26T10:11:39.918Z,96532.81
2022-08-26T10:14:21.459Z,96529.41
2022-08-26T10:17:03.337Z,96525.22
2022-08-26T10:19:55.864Z,96519.91
2022-08-26T10:22:41.070Z,96517.91
2022-08-26T10:25:14.240Z,96503.75
2022-08-26T10:28:00.134Z,96496.78
2022-08-26T10:30:37.024Z,96502.81
2022-08-26T10:33:12.966Z,96497.16
2022-08-26T10:36:01.877Z,96487.19
2022-08-26T10:38:40.292Z,96484.41
2022-08-26T10:41:18.037Z,96484.00
2022-08-26T10:44:00.383Z,96477.75
2022-08-26T10:46:34.558Z,96481.09
2022-08-26T10:49:11.077Z,96486.75
2022-08-26T10:52:05.386Z,96476.53
2022-08-26T10:54:53.498Z,96479.47
2022-08-26T10:57:46.479Z,96472.31
2022-08-26T11:00:50.892Z,96470.09
2022-08-26T11:03:23.524Z,96473.88
2022-08-26T11:06:18.256Z,96472.28
2022-08-26T11:08:49.081Z,96467.69
2022-08-26T11:11:36.060Z,96458.75
2022-08-26T11:14:05.797Z,96468.25
2022-08-26T11:16:42.946Z,96468.56
2022-08-26T11:19:18.862Z,96464.22
2022-08-26T11:21:51.231Z,96462.31
2022-08-26T11:24:54.725Z,96455.44
2022-08-26T11:27:27.189Z,96461.53
2022-08-26T11:29:59.825Z,96461.34
2022-08-26T11:32:45.362Z,96454.03
2022-08-26T11:35:18.651Z,96459.84
2022-08-26T11:37:48.203Z,96456.53
2022-08-26T11:40:21.304Z,96457.22
2022-08-26T11:43:03.312Z,96455.44
2022-08-26T11:45:46.671Z,96454.13
2022-08-26T11:48:27.050Z,96458.19
2022-08-26T11:51:00.591Z,96454.44
2022-08-26T11:53:29.854Z,96464.13
2022-08-26T11:55:59.360Z,96466.16
2022-08-26T11:58:27.723Z,96452.03
2022-08-26T12:00:58.513Z,96443.25
2022-08-26T12:03:45.791Z,96440.38
2022-08-26T12:06:43.320Z,96443.44
2022-08-26T12:09:25.730Z,96439.91
2022-08-26T12:11:54.194Z,96435.38
2022-08-26T12:14:27.336Z,96420.56
2022-08-26T12:16:55.153Z,96421.66
2022-08-26T12:19:32.746Z,96425.41
2022-08-26T12:22:18.974Z,96422.81
2022-08-26T12:24:58.584Z,96425.31
2022-08-26T12:27:31.739Z,96433.03
2022-08-26T12:30:19.290Z,96431.44
2022-08-26T12:32:58.216Z,96426.03
2022-08-26T12:35:26.974Z,96419.41
2022-08-26T12:37:55.237Z,96417.63
2022-08-26T12:40:33.397Z,96404.84
2022-08-26T12:43:02.692Z,96415.84
2022-08-26T12:45:33.705Z,96416.09
2022-08-26T12:48:10.568Z,96409.13
2022-08-26T12:50:44.318Z,96408.91
2022-08-26T12:53:10.834Z,96418.84
2022-08-26T12:55:45.391Z,96431.41
2022-08-26T12:58:37.594Z,96454.44
2022-08-26T13:01:04.325Z,96462.13
2022-08-26T13:03:43.360Z,96461.94
2022-08-26T13:06:15.684Z,96462.66
2022-08-26T13:08:48.162Z,96459.22
2022-08-26T13:11:34.684Z,96462.34
2022-08-26T13:14:07.018Z,96468.53
2022-08-26T13:16:35.239Z,96469.72
2022-08-26T13:19:06.069Z,96474.91
2022-08-26T13:21:48.394Z,96472.75
2022-08-26T13:24:20.129Z,96477.91
2022-08-26T13:26:51.891Z,96483.78
2022-08-26T13:29:18.910Z,96495.72
2022-08-26T13:31:46.317Z,96488.72
2022-08-26T13:34:18.269Z,96493.22
2022-08-26T13:36:50.614Z,96495.59
2022-08-26T13:39:18.006Z,96495.22
2022-08-26T13:41:44.968Z,96494.91
2022-08-26T13:44:11.710Z,96511.88
2022-08-26T13:46:40.316Z,96507.13
2022-08-26T13:49:07.708Z,96517.66
2022-08-26T13:51:34.414Z,96511.78
2022-08-26T13:54:01.075Z,96512.38
2022-08-26T13:56:29.744Z,96512.09
2022-08-26T13:58:57.418Z,96515.47
2022-08-26T14:01:24.883Z,96512.81
2022-08-26T14:03:51.851Z,96520.72
2022-08-26T14:06:19.355Z,96508.34
2022-08-26T14:08:46.140Z,96495.56
2022-08-26T14:11:13.083Z,96503.13
2022-08-26T14:13:39.747Z,96500.63
2022-08-26T14:16:15.999Z,96497.91
2022-08-26T14:18:47.323Z,96494.69
2022-08-26T14:21:16.987Z,96487.88
2022-08-26T14:23:43.656Z,96494.19
2022-08-26T14:26:11.673Z,96502.59
2022-08-26T14:28:55.258Z,96503.38
2022-08-26T14:31:23.607Z,96507.47
2022-08-26T14:33:50.341Z,96495.50
2022-08-26T14:36:28.921Z,96487.88
2022-08-26T14:38:57.153Z,96483.97
2022-08-26T14:41:25.506Z,96479.69
2022-08-26T14:44:00.290Z,96476.88
2022-08-26T14:46:32.011Z,96481.34
2022-08-26T14:49:01.054Z,96474.84
2022-08-26T14:51:29.866Z,96474.31
2022-08-26T14:54:12.324Z,96465.38
2022-08-26T14:56:42.732Z,96465.97
2022-08-26T14:59:11.330Z,96458.91
2022-08-26T15:01:39.010Z,96460.50
2022-08-26T15:04:05.694Z,96458.91
2022-08-26T15:06:36.009Z,96452.44
2022-08-26T15:09:03.747Z,96456.25
2022-08-26T15:11:32.949Z,96451.34
2022-08-26T15:14:00.048Z,96444.44
2022-08-26T15:16:28.493Z,96437.16
2022-08-26T15:18:55.584Z,96423.22
2022-08-26T15:21:24.887Z,96424.03
2022-08-26T15:23:52.742Z,96419.09
2022-08-26T15:26:20.390Z,96426.94
2022-08-26T15:28:47.469Z,96414.09
2022-08-26T15:31:14.221Z,96412.53
2022-08-26T15:33:40.873Z,96403.34
2022-08-26T15:36:08.744Z,96420.00
2022-08-26T15:38:39.119Z,96405.75
2022-08-26T15:41:08.662Z,96400.59
2022-08-26T15:43:38.964Z,96390.16
2022-08-26T15:46:10.950Z,96388.50
2022-08-26T15:48:38.573Z,96391.75
2022-08-26T15:51:06.199Z,96382.97
2022-08-26T15:53:34.525Z,96389.78
2022-08-26T15:56:02.113Z,96380.38
2022-08-26T15:58:29.751Z,96394.50
2022-08-26T16:00:57.362Z,96398.81
2022-08-26T16:03:23.996Z,96390.28
2022-08-26T16:05:50.741Z,96395.13
2022-08-26T16:08:18.959Z,96396.47
2022-08-26T16:10:50.513Z,96405.31
2022-08-26T16:13:19.794Z,96417.13
2022-08-26T16:15:48.075Z,96428.66
2022-08-26T16:18:15.683Z,96432.16
2022-08-26T16:21:12.442Z,96437.22
2022-08-26T16:23:39.881Z,96440.97
2022-08-26T16:26:11.447Z,96440.19
2022-08-26T16:28:38.957Z,96442.59
2022-08-26T16:31:06.920Z,96450.34
2022-08-26T16:33:33.597Z,96453.81
2022-08-26T16:36:00.274Z,96455.41
2022-08-26T16:38:26.950Z,96454.63
2022-08-26T16:40:53.506Z,96456.75
2022-08-26T16:43:20.110Z,96454.38
2022-08-26T16:45:46.791Z,96453.56
2022-08-26T16:48:13.493Z,96451.69
2022-08-26T16:50:42.197Z,96454.63
2022-08-26T16:53:16.239Z,96442.81
2022-08-26T16:55:50.445Z,96448.19
2022-08-26T16:58:21.953Z,96451.97
2022-08-26T17:00:49.670Z,96460.44
2022-08-26T17:03:18.360Z,96458.22
2022-08-26T17:05:44.996Z,96460.34
2022-08-26T17:08:14.528Z,96453.19
2022-08-26T17:10:51.601Z,96456.94
2022-08-26T17:13:35.882Z,96448.59
2022-08-26T17:16:05.049Z,96459.47
2022-08-26T17:18:34.083Z,96446.91
2022-08-26T17:21:03.486Z,96451.91
2022-08-26T17:23:30.129Z,96454.44
2022-08-26T17:25:57.186Z,96450.69
2022-08-26T17:28:23.793Z,96461.38
2022-08-26T17:30:50.698Z,96459.78
2022-08-26T17:33:21.989Z,96464.25
2022-08-26T17:35:51.470Z,96470.50
2022-08-26T17:38:18.079Z,96465.59
2022-08-26T17:40:45.724Z,96467.44
2022-08-26T17:43:12.715Z,96462.31
2022-08-26T17:45:40.568Z,96461.06
2022-08-26T17:48:08.096Z,96472.44
2022-08-26T17:50:35.010Z,96472.53
2022-08-26T17:53:01.734Z,96482.59
2022-08-26T17:55:29.091Z,96502.41
2022-08-26T17:57:55.686Z,96511.69
2022-08-26T18:00:26.494Z,96505.50
2022-08-26T18:02:55.074Z,96505.56
2022-08-26T18:05:22.297Z,96508.84
2022-08-26T18:07:49.049Z,96505.94
2022-08-26T18:10:18.186Z,96502.81
2022-08-26T18:12:45.281Z,96510.81
2022-08-26T18:15:13.742Z,96515.88
2022-08-26T18:17:40.589Z,96521.97
2022-08-26T18:20:15.080Z,96529.09
2022-08-26T18:22:42.557Z,96530.03
2022-08-26T18:25:12.428Z,96518.31
2022-08-26T18:27:39.363Z,96524.41
2022-08-26T18:30:11.356Z,96523.00
2022-08-26T18:32:40.220Z,96517.25
2022-08-26T18:35:07.936Z,96524.63
2022-08-26T18:37:34.591Z,96521.69
2022-08-26T18:40:01.297Z,96523.44
2022-08-26T18:42:28.504Z,96519.63
2022-08-26T18:44:55.080Z,96520.78
2022-08-26T18:47:22.723Z,96526.78
2022-08-26T18:49:50.936Z,96521.28
2022-08-26T18:52:17.529Z,96532.06
2022-08-26T18:54:44.211Z,96529.28
2022-08-26T18:57:11.599Z,96535.47
2022-08-26T18:59:38.903Z,96525.44
2022-08-26T19:02:05.690Z,96533.06
2022-08-26T19:04:33.669Z,96526.00
2022-08-26T19:07:00.321Z,96521.91
2022-08-26T19:09:27.280Z,96529.56
2022-08-26T19:14:23.020Z,96534.97
2022-08-26T19:16:52.483Z,96541.44
2022-08-26T19:19:21.213Z,96536.53
2022-08-26T19:21:47.866Z,96530.44
2022-08-26T19:24:17.618Z,96528.97
2022-08-26T19:26:50.341Z,96532.91
2022-08-26T19:29:25.623Z,96531.19
2022-08-26T19:31:52.253Z,96530.94
2022-08-26T19:34:20.875Z,96534.63
2022-08-26T19:36:48.279Z,96535.44
2022-08-26T19:39:15.176Z,96540.16
2022-08-26T19:41:41.864Z,96529.38
2022-08-26T19:44:12.913Z,96531.72
2022-08-26T19:46:39.738Z,96526.56
2022-08-26T19:49:06.466Z,96522.38
2022-08-26T19:51:34.752Z,96521.56
2022-08-26T19:54:01.548Z,96520.22
2022-08-26T19:56:38.033Z,96530.28
2022-08-26T19:59:13.610Z,96542.59
2022-08-26T20:01:40.520Z,96534.75
2022-08-26T20:04:14.382Z,96539.53
2022-08-26T20:06:40.993Z,96539.84
2022-08-26T20:09:08.980Z,96540.59
2022-08-26T20:11:36.025Z,96545.81
2022-08-26T20:14:04.837Z,96536.81
2022-08-26T20:16:32.851Z,96528.50
2022-08-26T20:19:20.423Z,96527.03
2022-08-26T20:21:47.169Z,96523.66
2022-08-26T20:24:20.931Z,96519.75
2022-08-26T20:26:48.938Z,96527.50
2022-08-26T20:29:17.406Z,96530.97
2022-08-26T20:31:46.757Z,96530.50
2022-08-26T20:34:15.042Z,96531.56
2022-08-26T20:36:42.575Z,96538.25
2022-08-26T20:39:10.754Z,96539.63
2022-08-26T20:41:38.347Z,96543.84
2022-08-26T20:44:05.698Z,96549.16
2022-08-26T20:46:34.670Z,96546.00
2022-08-26T20:49:01.446Z,96542.13
2022-08-26T20:51:28.583Z,96557.59
2022-08-26T20:53:55.192Z,96546.13
2022-08-26T20:56:24.353Z,96547.81
2022-08-26T20:58:54.240Z,96544.66
2022-08-26T21:01:24.462Z,96547.47
2022-08-26T21:03:52.700Z,96536.50
2022-08-26T21:06:25.632Z,96531.97
2022-08-26T21:08:54.725Z,96526.38
2022-08-26T21:11:23.135Z,96522.41
2022-08-26T21:14:07.045Z,96523.25
2022-08-26T21:16:41.840Z,96524.44
2022-08-26T21:19:10.735Z,96518.16
2022-08-26T21:21:37.916Z,96510.88
2022-08-26T21:24:04.707Z,96510.41
2022-08-26T21:26:31.477Z,96513.00
2022-08-26T21:28:58.097Z,96518.38
2022-08-26T21:31:25.543Z,96525.50
2022-08-26T21:33:52.838Z,96521.09
2022-08-26T21:36:20.234Z,96518.56
2022-08-26T21:38:47.303Z,96521.47
2022-08-26T21:41:18.753Z,96527.53
2022-08-26T21:43:46.261Z,96533.03
2022-08-26T21:46:16.515Z,96526.72
2022-08-26T21:48:50.683Z,96525.66
2022-08-26T21:51:20.139Z,96532.06
2022-08-26T21:53:47.360Z,96531.16
2022-08-26T21:56:21.433Z,96532.38
2022-08-26T21:58:48.680Z,96526.06
2022-08-26T22:01:22.161Z,96528.91
2022-08-26T22:03:52.656Z,96536.22
2022-08-26T22:06:22.646Z,96548.91
2022-08-26T22:08:50.365Z,96563.09
2022-08-26T22:11:17.516Z,96576.59
2022-08-26T22:13:45.682Z,96585.31
2022-08-26T22:16:13.345Z,96570.06
2022-08-26T22:18:43.273Z,96568.69
2022-08-26T22:21:18.180Z,96581.13
2022-08-26T22:23:45.442Z,96585.69
2022-08-26T22:26:14.380Z,96574.97
2022-08-26T22:28:41.038Z,96582.44
2022-08-26T22:31:10.179Z,96574.00
2022-08-26T22:33:41.116Z,96562.94
2022-08-26T22:36:08.122Z,96562.44
2022-08-26T22:38:34.771Z,96578.94
2022-08-26T22:41:03.426Z,96576.47
2022-08-26T22:43:33.265Z,96565.97
2022-08-26T22:45:59.927Z,96559.53
2022-08-26T22:48:26.971Z,96553.44
2022-08-26T22:50:59.688Z,96553.84
2022-08-26T22:53:27.042Z,96544.94
2022-08-26T22:55:54.264Z,96536.38
2022-08-26T22:58:21.631Z,96539.75
2022-08-26T23:00:57.705Z,96542.31
2022-08-26T23:03:26.638Z,96539.75
2022-08-26T23:05:53.530Z,96537.50
2022-08-26T23:08:20.483Z,96533.59
2022-08-26T23:10:48.347Z,96547.63
2022-08-26T23:13:17.113Z,96547.38
2022-08-26T23:15:44.705Z,96538.41
2022-08-26T23:18:13.634Z,96535.38
2022-08-26T23:20:41.016Z,96537.84
2022-08-26T23:23:08.333Z,96534.53
2022-08-26T23:25:36.964Z,96528.69
2022-08-26T23:28:04.194Z,96526.78
2022-08-26T23:30:32.610Z,96522.38
2022-08-26T23:32:59.583Z,96521.59
2022-08-26T23:35:29.390Z,96530.63
2022-08-26T23:37:57.797Z,96525.19
2022-08-26T23:40:28.801Z,96521.22
2022-08-26T23:42:57.315Z,96535.00
2022-08-26T23:45:25.639Z,96520.09
2022-08-26T23:47:54.652Z,96517.75
2022-08-26T23:50:43.903Z,96529.00
2022-08-26T23:53:11.041Z,96531.69
2022-08-26T23:55:39.223Z,96528.06
2022-08-26T23:58:06.605Z,96542.31
